Hlavní strana
METAR-TAF:

METAR-TAF

Letiště :

Pointe-Noire, Kongo

zeměpisná šířka: 04-49S, zeměpisná délka: 011-54E, výška: 17 m

Aktuální stav počasí

Zpráva byla vytvořena před 56 minutami, v 08:00 UTC
Jihojihovýchodní vítr 6 kt
Teplota 23°C
Vlhkost vzduchu 83%
Tlak 1016 hPa
Viditelnost: 7000 m
Polojasno ve výšce 1000 ft
Zataženo ve výšce 2300 ft

METAR: FCPP 160800Z 16006KT 7000 SCT010 OVC023 23/20 Q1016 NOSIG

Čas: 09:56 (08:56 UTC)

Předpověď počasí

Zpráva byla vytvořena před 3 hodinami a 56 minutami, v 05:00 UTC
Předpověď platná od 16 v 06 UTC do 17 v 06 UTC
Jihojihozápadní vítr 4 kt
Viditelnost: 8000 m
Polojasno ve výšce 1000 ft
Oblačno až skoro zataženo ve výšce 2000 ft
Pravděpodobnost 30%
od 16 v 07 UTC do 16 v 09 UTC
Viditelnost: 4000 m
kouřmo

TAF: FCPP 160500Z 1606/1706 20004KT 8000 SCT010 BKN020 PROB30 1607/1609 4000 BR

Stav a předpovědi počasí z více než 4 000 letišť (zprávy METAR a TAF).

Červené a žluté tečky na mapě představují dostupné meteorologické stanice.

Když kurzor umístíte na tečku, zobrazí se název stanice.

Pak kliknutím zobrazíte stav a předpověď počasí.

Chcete-li změnit mapu, kliknutím na zelené tlačítko se znaménkem +mapu přiblížíte, kliknutím na zelené tlačítko se znaménkem – mapu oddálíte a kliknutím na zelené šipky přejdete na sousední mapy.


METAR-TAF: